Portada
METAR-TAF:

METAR-TAF

Aeroports :

Guwahati, Índia

latitud: 26-06-22N, longitud: 091-35-09E, altitud: 49 m

Observació

L'informe es va fer fa 37 minuts, a les 09:00 UTC
Vent 3 kt del Oest/Nord-Oest
Temperatura 23°C
Humitat 57%
Pressió 1015 hPa
Visibilitat: 2000 m
Escasses núvols a una alçada de 2000 ft
calitja

METAR: VEGT 220900Z 30003KT 2000 HZ FEW020 23/14 Q1015 NOSIG

Hora: 15:07 (09:37 UTC)

Pronòstic

L'informe es va fer fa 1 hora i 37 minuts, a les 08:00 UTC
Pronòstic vàlid del 22 a les 09 UTC al 22 a les 18 UTC
Vent 5 kt del Sud
Visibilitat: 2000 m
Escasses núvols a una alçada de 2000 ft
calitja
Evolucionant progressivament
l' 22 a les 14 UTC al 22 a les 16 UTC
Vent kt del Nord
Visibilitat: 1500 m
Escasses núvols a una alçada de 2000 ft
Núvols disperses a una alçada de 10000 ft
boirina

TAF: VEGT 220800Z 2209/2218 19005KT 2000 HZ FEW020 BECMG 2214/2216 00000KT 1500 BR FEW020 SCT100

Observacions i pronòstics meteorològics de més de 4000 aeroports (METAR i TAF).

Les estacions disponibles són els punts grocs i vermells al mapa.

Posi el ratolí al punt desitjat per veure el nom de l'estació.

Feu clic per veure les observacions i els pronòstics meteorològics.

Per canviar el mapa: feu clic els botons verds amb una creu de color negre per apropar; al botó verd amb un guió per allunyar la imatge; o en les fletxes verdes per a mapes adjacents.


METAR-TAF: